createdAt,value
2023-03-05T00:00:40.612Z,1011.80
2023-03-05T00:01:40.614Z,1011.80
2023-03-05T00:02:40.598Z,1011.78
2023-03-05T00:03:40.615Z,1011.78
2023-03-05T00:04:40.657Z,1011.84
2023-03-05T00:05:40.635Z,1011.73
2023-03-05T00:06:40.546Z,1011.61
2023-03-05T00:07:40.503Z,1011.66
2023-03-05T00:08:40.502Z,1011.67
2023-03-05T00:09:40.838Z,1011.70
2023-03-05T00:10:41.544Z,1011.72
2023-03-05T00:11:40.490Z,1011.70
2023-03-05T00:12:40.687Z,1011.64
2023-03-05T00:13:40.458Z,1011.64
2023-03-05T00:14:40.425Z,1011.68
2023-03-05T00:15:41.587Z,1011.60
2023-03-05T00:16:41.493Z,1011.65
2023-03-05T00:17:40.788Z,1011.61
2023-03-05T00:18:40.365Z,1011.62
2023-03-05T00:19:41.190Z,1011.66
2023-03-05T00:20:40.355Z,1011.66
2023-03-05T00:21:40.453Z,1011.66
2023-03-05T00:22:40.503Z,1011.62
2023-03-05T00:23:40.855Z,1011.54
2023-03-05T00:24:40.337Z,1011.59
2023-03-05T00:25:40.304Z,1011.55
2023-03-05T00:26:40.290Z,1011.49
2023-03-05T00:27:41.487Z,1011.50
2023-03-05T00:28:40.249Z,1011.46
2023-03-05T00:29:40.222Z,1011.45
2023-03-05T00:30:41.159Z,1011.37
2023-03-05T00:31:40.516Z,1011.43
2023-03-05T00:32:40.287Z,1011.46
2023-03-05T00:33:41.389Z,1011.39
2023-03-05T00:34:41.251Z,1011.42
2023-03-05T00:35:40.331Z,1011.36
2023-03-05T00:36:40.161Z,1011.35
2023-03-05T00:37:40.154Z,1011.42
2023-03-05T00:38:40.135Z,1011.35
2023-03-05T00:39:40.132Z,1011.38
2023-03-05T00:40:40.220Z,1011.42
2023-03-05T00:41:40.154Z,1011.35
2023-03-05T00:42:40.173Z,1011.32
2023-03-05T00:43:40.132Z,1011.34
2023-03-05T00:44:40.044Z,1011.30
2023-03-05T00:45:40.066Z,1011.31
2023-03-05T00:46:40.077Z,1011.30
2023-03-05T00:47:40.105Z,1011.34
2023-03-05T00:48:40.045Z,1011.32
2023-03-05T00:49:40.006Z,1011.25
2023-03-05T00:50:39.995Z,1011.32
2023-03-05T00:51:39.973Z,1011.27
2023-03-05T00:52:40.022Z,1011.20
2023-03-05T00:53:39.954Z,1011.23
2023-03-05T00:54:39.931Z,1011.20
2023-03-05T00:55:39.906Z,1011.20
2023-03-05T00:56:40.064Z,1011.13
2023-03-05T00:57:39.946Z,1011.11
2023-03-05T00:58:39.926Z,1011.10
2023-03-05T00:59:39.862Z,1011.07
2023-03-05T01:00:39.848Z,1011.02
2023-03-05T01:01:39.884Z,1011.07
2023-03-05T01:02:39.854Z,1011.02
2023-03-05T01:03:39.819Z,1010.95
2023-03-05T01:04:39.825Z,1010.94
2023-03-05T01:05:40.860Z,1010.95
2023-03-05T01:06:39.837Z,1010.97
2023-03-05T01:07:39.824Z,1011.01
2023-03-05T01:08:39.739Z,1010.90
2023-03-05T01:09:39.732Z,1010.98
2023-03-05T01:10:39.707Z,1011.05
2023-03-05T01:11:39.677Z,1010.97
2023-03-05T01:12:39.740Z,1011.04
2023-03-05T01:13:39.699Z,1010.99
2023-03-05T01:14:39.807Z,1010.99
2023-03-05T01:15:40.414Z,1010.98
2023-03-05T01:16:39.606Z,1010.98
2023-03-05T01:17:39.697Z,1011.00
2023-03-05T01:18:39.649Z,1010.95
2023-03-05T01:19:39.849Z,1010.91
2023-03-05T01:20:39.610Z,1010.90
2023-03-05T01:21:40.351Z,1010.87
2023-03-05T01:22:39.524Z,1010.90
2023-03-05T01:23:39.550Z,1010.87
2023-03-05T01:24:39.540Z,1010.88
2023-03-05T01:25:39.829Z,1010.89
2023-03-05T01:26:39.540Z,1010.91
2023-03-05T01:27:39.510Z,1010.91
2023-03-05T01:28:39.495Z,1010.92
2023-03-05T01:29:39.470Z,1010.86
2023-03-05T01:30:39.468Z,1010.85
2023-03-05T01:31:39.643Z,1010.87
2023-03-05T01:32:39.519Z,1010.84
2023-03-05T01:33:39.438Z,1010.81
2023-03-05T01:34:39.517Z,1010.81
2023-03-05T01:35:39.415Z,1010.80
2023-03-05T01:36:40.427Z,1010.83
2023-03-05T01:37:40.340Z,1010.74
2023-03-05T01:38:39.451Z,1010.68
2023-03-05T01:39:39.500Z,1010.74
2023-03-05T01:40:39.305Z,1010.67
2023-03-05T01:41:39.301Z,1010.67
2023-03-05T01:42:39.277Z,1010.74
2023-03-05T01:43:39.320Z,1010.67
2023-03-05T01:44:39.290Z,1010.70
2023-03-05T01:45:39.393Z,1010.61
2023-03-05T01:46:39.289Z,1010.64
2023-03-05T01:47:39.415Z,1010.61
2023-03-05T01:48:39.280Z,1010.62
2023-03-05T01:49:40.155Z,1010.50
2023-03-05T01:50:40.112Z,1010.52
2023-03-05T01:51:39.687Z,1010.50
2023-03-05T01:52:39.411Z,1010.50
2023-03-05T01:53:39.184Z,1010.46
2023-03-05T01:54:39.192Z,1010.46
2023-03-05T01:55:39.132Z,1010.48
2023-03-05T01:56:39.100Z,1010.42
2023-03-05T01:57:39.120Z,1010.42
2023-03-05T01:58:39.070Z,1010.41
2023-03-05T01:59:39.199Z,1010.46
2023-03-05T02:00:39.090Z,1010.46
2023-03-05T02:01:39.046Z,1010.45
2023-03-05T02:02:39.041Z,1010.42
2023-03-05T02:03:39.900Z,1010.46
2023-03-05T02:04:39.132Z,1010.38
2023-03-05T02:05:39.012Z,1010.36
2023-03-05T02:06:40.112Z,1010.40
2023-03-05T02:07:40.140Z,1010.43
2023-03-05T02:08:38.964Z,1010.40
2023-03-05T02:09:39.061Z,1010.40
2023-03-05T02:10:39.141Z,1010.36
2023-03-05T02:11:40.142Z,1010.41
2023-03-05T02:12:39.059Z,1010.38
2023-03-05T02:13:38.914Z,1010.36
2023-03-05T02:14:39.855Z,1010.37
2023-03-05T02:15:38.876Z,1010.30
2023-03-05T02:16:40.371Z,1010.33
2023-03-05T02:17:38.838Z,1010.29
2023-03-05T02:18:38.909Z,1010.31
2023-03-05T02:19:38.906Z,1010.31
2023-03-05T02:20:38.805Z,1010.23
2023-03-05T02:21:38.847Z,1010.26
2023-03-05T02:22:38.814Z,1010.22
2023-03-05T02:23:40.016Z,1010.24
2023-03-05T02:24:39.919Z,1010.16
2023-03-05T02:25:39.828Z,1010.15
2023-03-05T02:26:39.724Z,1010.19
2023-03-05T02:27:38.758Z,1010.14
2023-03-05T02:28:40.165Z,1010.12
2023-03-05T02:29:39.674Z,1010.25
2023-03-05T02:30:39.854Z,1010.12
2023-03-05T02:31:38.874Z,1010.12
2023-03-05T02:32:38.710Z,1010.13
2023-03-05T02:33:38.686Z,1010.05
2023-03-05T02:34:38.649Z,1010.01
2023-03-05T02:35:38.715Z,1010.01
2023-03-05T02:36:38.616Z,1010.03
2023-03-05T02:37:39.698Z,1010.03
2023-03-05T02:38:39.599Z,1009.96
2023-03-05T02:39:38.619Z,1009.99
2023-03-05T02:40:38.629Z,1009.95
2023-03-05T02:41:38.576Z,1009.95
2023-03-05T02:42:38.667Z,1009.96
2023-03-05T02:43:38.587Z,1009.93
2023-03-05T02:44:38.546Z,1010.10
2023-03-05T02:45:38.578Z,1009.86
2023-03-05T02:46:38.491Z,1009.90
2023-03-05T02:47:38.511Z,1009.83
2023-03-05T02:48:38.469Z,1009.90
2023-03-05T02:49:38.488Z,1009.83
2023-03-05T02:50:38.451Z,1009.84
2023-03-05T02:51:38.561Z,1009.83
2023-03-05T02:52:39.391Z,1009.85
2023-03-05T02:53:38.682Z,1009.85
2023-03-05T02:54:38.397Z,1009.85
2023-03-05T02:55:38.394Z,1009.82
2023-03-05T02:56:38.429Z,1009.81
2023-03-05T02:57:38.393Z,1009.81
2023-03-05T02:58:38.549Z,1009.80
2023-03-05T02:59:38.381Z,1009.82
2023-03-05T03:00:38.321Z,1009.79
2023-03-05T03:01:38.404Z,1009.79
2023-03-05T03:02:39.299Z,1009.75
2023-03-05T03:03:38.424Z,1009.70
2023-03-05T03:04:38.291Z,1009.75
2023-03-05T03:05:38.289Z,1009.71
2023-03-05T03:06:39.456Z,1009.69
2023-03-05T03:07:38.322Z,1009.69
2023-03-05T03:08:38.293Z,1009.67
2023-03-05T03:09:38.872Z,1009.69
2023-03-05T03:10:38.214Z,1009.67
2023-03-05T03:11:38.203Z,1009.67
2023-03-05T03:12:38.190Z,1009.68
2023-03-05T03:13:38.140Z,1009.67
2023-03-05T03:14:38.188Z,1009.70
2023-03-05T03:15:39.132Z,1009.68
2023-03-05T03:16:38.225Z,1009.67
2023-03-05T03:17:38.986Z,1009.61
2023-03-05T03:18:38.175Z,1009.65
2023-03-05T03:19:38.121Z,1009.55
2023-03-05T03:20:38.156Z,1009.65
2023-03-05T03:21:38.039Z,1009.65
2023-03-05T03:22:38.971Z,1009.61
2023-03-05T03:23:38.037Z,1009.57
2023-03-05T03:24:38.416Z,1009.61
2023-03-05T03:25:37.998Z,1009.57
2023-03-05T03:26:38.023Z,1009.55
2023-03-05T03:27:38.049Z,1009.53
2023-03-05T03:28:38.067Z,1009.45
2023-03-05T03:29:37.974Z,1009.50
2023-03-05T03:30:38.599Z,1009.52
2023-03-05T03:31:39.129Z,1009.56
2023-03-05T03:32:38.141Z,1009.54
2023-03-05T03:33:37.911Z,1009.48
2023-03-05T03:34:37.959Z,1009.49
2023-03-05T03:35:37.953Z,1009.51
2023-03-05T03:36:37.868Z,1009.46
2023-03-05T03:37:37.960Z,1009.48
2023-03-05T03:38:37.837Z,1009.46
2023-03-05T03:39:37.851Z,1009.46
2023-03-05T03:40:37.941Z,1009.43
2023-03-05T03:41:38.693Z,1009.44
2023-03-05T03:42:37.852Z,1009.43
2023-03-05T03:43:37.812Z,1009.37
2023-03-05T03:44:37.878Z,1009.42
2023-03-05T03:45:37.814Z,1009.34
2023-03-05T03:46:37.862Z,1009.35
2023-03-05T03:47:37.813Z,1009.40
2023-03-05T03:48:37.731Z,1009.36
2023-03-05T03:49:37.715Z,1009.33
2023-03-05T03:50:37.717Z,1009.36
2023-03-05T03:51:37.690Z,1009.36
2023-03-05T03:52:38.654Z,1009.33
2023-03-05T03:53:37.685Z,1009.28
2023-03-05T03:54:37.656Z,1009.28
2023-03-05T03:55:37.663Z,1009.25
2023-03-05T03:56:38.795Z,1009.22
2023-03-05T03:57:37.600Z,1009.22
2023-03-05T03:58:38.580Z,1009.28
2023-03-05T03:59:37.578Z,1009.22
2023-03-05T04:00:37.714Z,1009.18
2023-03-05T04:01:37.543Z,1009.27
2023-03-05T04:02:37.615Z,1009.18
2023-03-05T04:03:37.569Z,1009.23
2023-03-05T04:04:37.549Z,1009.13
2023-03-05T04:05:37.482Z,1009.24
2023-03-05T04:06:37.514Z,1009.10
2023-03-05T04:07:37.488Z,1009.08
2023-03-05T04:08:37.857Z,1009.08
2023-03-05T04:09:37.874Z,1009.16
2023-03-05T04:10:38.415Z,1009.03
2023-03-05T04:11:37.635Z,1009.07
2023-03-05T04:12:37.492Z,1009.02
2023-03-05T04:13:37.466Z,1008.98
2023-03-05T04:14:37.398Z,1009.02
2023-03-05T04:15:37.437Z,1009.01
2023-03-05T04:16:37.376Z,1008.99
2023-03-05T04:17:37.358Z,1009.01
2023-03-05T04:18:37.487Z,1009.01
2023-03-05T04:19:37.336Z,1009.00
2023-03-05T04:20:37.357Z,1008.99
2023-03-05T04:21:37.341Z,1009.02
2023-03-05T04:22:37.489Z,1009.00
2023-03-05T04:23:37.344Z,1009.04
2023-03-05T04:24:37.340Z,1008.90
2023-03-05T04:25:37.351Z,1008.96
2023-03-05T04:26:37.248Z,1008.95
2023-03-05T04:27:37.237Z,1008.92
2023-03-05T04:28:37.219Z,1008.86
2023-03-05T04:29:37.240Z,1008.91
2023-03-05T04:30:37.205Z,1008.93
2023-03-05T04:31:37.178Z,1008.89
2023-03-05T04:32:38.184Z,1008.88
2023-03-05T04:33:38.293Z,1008.88
2023-03-05T04:34:37.265Z,1008.91
2023-03-05T04:35:37.249Z,1008.92
2023-03-05T04:36:38.176Z,1008.93
2023-03-05T04:37:37.776Z,1008.87
2023-03-05T04:38:37.121Z,1008.99
2023-03-05T04:39:37.097Z,1008.99
2023-03-05T04:40:37.062Z,1008.92
2023-03-05T04:41:37.104Z,1008.92
2023-03-05T04:42:37.044Z,1008.85
2023-03-05T04:43:37.065Z,1008.90
2023-03-05T04:44:37.003Z,1008.93
2023-03-05T04:45:37.090Z,1008.89
2023-03-05T04:46:38.114Z,1008.94
2023-03-05T04:47:37.974Z,1008.76
2023-03-05T04:48:37.155Z,1008.80
2023-03-05T04:49:37.907Z,1008.75
2023-03-05T04:50:36.910Z,1008.81
2023-03-05T04:51:36.910Z,1008.75
2023-03-05T04:52:36.915Z,1008.76
2023-03-05T04:53:36.970Z,1008.73
2023-03-05T04:54:37.802Z,1008.76
2023-03-05T04:55:36.903Z,1008.77
2023-03-05T04:56:37.032Z,1008.82
2023-03-05T04:57:38.031Z,1008.71
2023-03-05T04:58:36.855Z,1008.74
2023-03-05T04:59:36.869Z,1008.74
2023-03-05T05:00:36.922Z,1008.80
2023-03-05T05:01:37.718Z,1008.72
2023-03-05T05:02:37.346Z,1008.73
2023-03-05T05:03:36.812Z,1008.73
2023-03-05T05:04:36.798Z,1008.73
2023-03-05T05:05:36.771Z,1008.67
2023-03-05T05:06:36.765Z,1008.70
2023-03-05T05:07:36.753Z,1008.66
2023-03-05T05:08:36.795Z,1008.73
2023-03-05T05:09:36.727Z,1008.72
2023-03-05T05:10:36.737Z,1008.72
2023-03-05T05:11:36.663Z,1008.74
2023-03-05T05:12:37.617Z,1008.69
2023-03-05T05:13:37.176Z,1008.74
2023-03-05T05:14:36.778Z,1008.75
2023-03-05T05:15:36.609Z,1008.67
2023-03-05T05:16:36.651Z,1008.67
2023-03-05T05:17:36.581Z,1008.69
2023-03-05T05:18:36.594Z,1008.70
2023-03-05T05:19:36.629Z,1008.69
2023-03-05T05:20:36.571Z,1008.69
2023-03-05T05:21:36.568Z,1008.66
2023-03-05T05:22:36.568Z,1008.68
2023-03-05T05:23:37.590Z,1008.60
2023-03-05T05:24:36.528Z,1008.63
2023-03-05T05:25:37.398Z,1008.75
2023-03-05T05:26:36.578Z,1008.57
2023-03-05T05:27:37.713Z,1008.60
2023-03-05T05:28:36.579Z,1008.62
2023-03-05T05:29:36.536Z,1008.66
2023-03-05T05:30:36.416Z,1008.62
2023-03-05T05:31:36.481Z,1008.63
2023-03-05T05:32:36.482Z,1008.61
2023-03-05T05:33:36.389Z,1008.57
2023-03-05T05:34:36.501Z,1008.55
2023-03-05T05:35:36.553Z,1008.57
2023-03-05T05:36:36.376Z,1008.57
2023-03-05T05:37:37.344Z,1008.56
2023-03-05T05:38:37.102Z,1008.55
2023-03-05T05:39:37.113Z,1008.57
2023-03-05T05:40:36.340Z,1008.50
2023-03-05T05:41:36.320Z,1008.55
2023-03-05T05:42:36.316Z,1008.50
2023-03-05T05:43:36.275Z,1008.59
2023-03-05T05:44:37.113Z,1008.50
2023-03-05T05:45:36.357Z,1008.48
2023-03-05T05:46:36.351Z,1008.46
2023-03-05T05:47:36.245Z,1008.44
2023-03-05T05:48:36.228Z,1008.43
2023-03-05T05:49:36.206Z,1008.45
2023-03-05T05:50:37.046Z,1008.47
2023-03-05T05:51:36.320Z,1008.49
2023-03-05T05:52:36.220Z,1008.46
2023-03-05T05:53:36.178Z,1008.47
2023-03-05T05:54:36.173Z,1008.42
2023-03-05T05:55:36.148Z,1008.43
2023-03-05T05:56:36.114Z,1008.44
2023-03-05T05:57:36.144Z,1008.49
2023-03-05T05:58:36.099Z,1008.46
2023-03-05T05:59:36.981Z,1008.47
2023-03-05T06:00:36.080Z,1008.48
2023-03-05T06:01:36.231Z,1008.44
2023-03-05T06:02:36.072Z,1008.46
2023-03-05T06:03:36.846Z,1008.41
2023-03-05T06:04:37.242Z,1008.44
2023-03-05T06:05:37.142Z,1008.46
2023-03-05T06:06:36.001Z,1008.45
2023-03-05T06:07:35.993Z,1008.46
2023-03-05T06:08:35.981Z,1008.39
2023-03-05T06:09:36.797Z,1008.44
2023-03-05T06:10:36.048Z,1008.40
2023-03-05T06:11:35.929Z,1008.44
2023-03-05T06:12:35.971Z,1008.33
2023-03-05T06:13:35.917Z,1008.40
2023-03-05T06:14:35.925Z,1008.38
2023-03-05T06:15:36.908Z,1008.39
2023-03-05T06:16:36.492Z,1008.37
2023-03-05T06:17:35.906Z,1008.44
2023-03-05T06:18:36.547Z,1008.40
2023-03-05T06:19:35.839Z,1008.39
2023-03-05T06:20:36.686Z,1008.38
2023-03-05T06:21:36.204Z,1008.36
2023-03-05T06:22:35.861Z,1008.42
2023-03-05T06:23:35.789Z,1008.41
2023-03-05T06:24:35.772Z,1008.42
2023-03-05T06:25:35.800Z,1008.41
2023-03-05T06:26:35.804Z,1008.44
2023-03-05T06:27:36.571Z,1008.37
2023-03-05T06:28:36.054Z,1008.39
2023-03-05T06:29:36.660Z,1008.48
2023-03-05T06:30:35.845Z,1008.41
2023-03-05T06:31:37.334Z,1008.39
2023-03-05T06:32:35.916Z,1008.35
2023-03-05T06:33:35.719Z,1008.39
2023-03-05T06:34:35.645Z,1008.38
2023-03-05T06:35:35.678Z,1008.41
2023-03-05T06:36:35.644Z,1008.42
2023-03-05T06:37:35.610Z,1008.37
2023-03-05T06:38:35.612Z,1008.41
2023-03-05T06:39:35.609Z,1008.42
2023-03-05T06:40:35.592Z,1008.36
2023-03-05T06:41:35.529Z,1008.37
2023-03-05T06:42:35.523Z,1008.33
2023-03-05T06:43:35.567Z,1008.37
2023-03-05T06:44:35.525Z,1008.39
2023-03-05T06:45:35.586Z,1008.47
2023-03-05T06:46:35.559Z,1008.44
2023-03-05T06:47:35.481Z,1008.41
2023-03-05T06:48:35.483Z,1008.41
2023-03-05T06:49:35.451Z,1008.42
2023-03-05T06:50:35.453Z,1008.40
2023-03-05T06:51:35.416Z,1008.40
2023-03-05T06:52:35.470Z,1008.42
2023-03-05T06:53:35.426Z,1008.43
2023-03-05T06:54:35.559Z,1008.46
2023-03-05T06:55:35.560Z,1008.43
2023-03-05T06:56:35.469Z,1008.42
2023-03-05T06:57:35.440Z,1008.36
2023-03-05T06:58:35.415Z,1008.40
2023-03-05T06:59:35.377Z,1008.36
2023-03-05T07:00:35.329Z,1008.37
2023-03-05T07:01:35.399Z,1008.35
2023-03-05T07:02:35.335Z,1008.35
2023-03-05T07:03:35.277Z,1008.33
2023-03-05T07:04:35.244Z,1008.37
2023-03-05T07:05:35.257Z,1008.38
2023-03-05T07:06:35.252Z,1008.34
2023-03-05T07:07:35.222Z,1008.31
2023-03-05T07:08:35.221Z,1008.34
2023-03-05T07:09:35.221Z,1008.27
2023-03-05T07:10:35.165Z,1008.30
2023-03-05T07:11:35.249Z,1008.32
2023-03-05T07:12:35.188Z,1008.33
2023-03-05T07:13:35.152Z,1008.21
2023-03-05T07:14:35.196Z,1008.25
2023-03-05T07:15:35.116Z,1008.23
2023-03-05T07:16:35.128Z,1008.27
2023-03-05T07:17:35.893Z,1008.32
2023-03-05T07:18:35.113Z,1008.23
2023-03-05T07:19:35.075Z,1008.22
2023-03-05T07:20:35.044Z,1008.21
2023-03-05T07:21:38.261Z,1008.20
2023-03-05T07:22:35.056Z,1008.29
2023-03-05T07:23:35.047Z,1008.22
2023-03-05T07:24:35.107Z,1008.13
2023-03-05T07:25:34.985Z,1008.20
2023-03-05T07:26:35.037Z,1008.17
2023-03-05T07:27:34.969Z,1008.15
2023-03-05T07:28:35.826Z,1008.18
2023-03-05T07:29:35.204Z,1008.17
2023-03-05T07:30:36.190Z,1008.20
2023-03-05T07:31:34.982Z,1008.15
2023-03-05T07:32:34.970Z,1008.19
2023-03-05T07:33:35.158Z,1008.16
2023-03-05T07:34:34.926Z,1008.11
2023-03-05T07:35:36.393Z,1008.17
2023-03-05T07:36:35.274Z,1008.16
2023-03-05T07:37:34.847Z,1008.15
2023-03-05T07:38:34.826Z,1008.15
2023-03-05T07:39:34.827Z,1008.16
2023-03-05T07:40:34.828Z,1008.09
2023-03-05T07:41:34.866Z,1008.19
2023-03-05T07:42:34.847Z,1008.19
2023-03-05T07:43:34.820Z,1008.11
2023-03-05T07:44:34.748Z,1008.10
2023-03-05T07:45:34.899Z,1008.13
2023-03-05T07:46:35.702Z,1008.08
2023-03-05T07:47:34.958Z,1008.06
2023-03-05T07:48:34.740Z,1008.02
2023-03-05T07:49:34.689Z,1008.12
2023-03-05T07:50:34.701Z,1008.06
2023-03-05T07:51:34.674Z,1008.02
2023-03-05T07:52:34.648Z,1008.05
2023-03-05T07:53:34.632Z,1008.02
2023-03-05T07:54:34.963Z,1007.94
2023-03-05T07:55:35.589Z,1007.96
2023-03-05T07:56:34.981Z,1007.94
2023-03-05T07:57:34.980Z,1007.97
2023-03-05T07:58:34.581Z,1007.93
2023-03-05T07:59:34.693Z,1007.95
2023-03-05T08:00:35.521Z,1007.96
2023-03-05T08:01:35.732Z,1007.95
2023-03-05T08:02:34.614Z,1008.01
2023-03-05T08:03:34.564Z,1007.95
2023-03-05T08:04:34.502Z,1007.87
2023-03-05T08:05:34.680Z,1007.93
2023-03-05T08:06:34.696Z,1007.95
2023-03-05T08:07:34.734Z,1007.94
2023-03-05T08:08:34.496Z,1007.96
2023-03-05T08:09:35.489Z,1007.99
2023-03-05T08:10:34.451Z,1008.00
2023-03-05T08:11:34.706Z,1008.00
2023-03-05T08:12:34.640Z,1007.94
2023-03-05T08:13:34.468Z,1007.96
2023-03-05T08:14:34.390Z,1008.03
2023-03-05T08:15:34.550Z,1008.00
2023-03-05T08:16:34.459Z,1007.96
2023-03-05T08:17:34.563Z,1007.93
2023-03-05T08:18:34.743Z,1007.98
2023-03-05T08:19:34.375Z,1007.95
2023-03-05T08:20:34.692Z,1007.92
2023-03-05T08:21:34.505Z,1007.94
2023-03-05T08:22:34.285Z,1007.94
2023-03-05T08:23:34.254Z,1007.96
2023-03-05T08:24:34.285Z,1007.94
2023-03-05T08:25:34.232Z,1007.90
2023-03-05T08:26:34.422Z,1007.85
2023-03-05T08:27:34.291Z,1007.85
2023-03-05T08:28:34.521Z,1007.78
2023-03-05T08:29:34.253Z,1007.90
2023-03-05T08:30:34.297Z,1007.85
2023-03-05T08:31:34.330Z,1007.87
2023-03-05T08:32:34.313Z,1007.80
2023-03-05T08:33:35.376Z,1007.92
2023-03-05T08:34:34.114Z,1007.88
2023-03-05T08:35:35.084Z,1007.82
2023-03-05T08:36:34.097Z,1007.87
2023-03-05T08:37:34.118Z,1007.83
2023-03-05T08:38:34.074Z,1007.83
2023-03-05T08:39:34.066Z,1007.83
2023-03-05T08:40:34.048Z,1007.81
2023-03-05T08:41:34.045Z,1007.80
2023-03-05T08:42:33.996Z,1007.85
2023-03-05T08:43:34.079Z,1007.94
2023-03-05T08:44:34.012Z,1007.80
2023-03-05T08:45:34.091Z,1007.84
2023-03-05T08:46:34.030Z,1007.78
2023-03-05T08:47:33.969Z,1007.73
2023-03-05T08:48:34.013Z,1007.84
2023-03-05T08:49:34.749Z,1007.85
2023-03-05T08:50:34.087Z,1007.79
2023-03-05T08:51:33.988Z,1007.78
2023-03-05T08:52:33.904Z,1007.75
2023-03-05T08:53:33.928Z,1007.73
2023-03-05T08:54:33.881Z,1007.73
2023-03-05T08:55:33.841Z,1007.75
2023-03-05T08:56:33.958Z,1007.74
2023-03-05T08:57:33.828Z,1007.71
2023-03-05T08:58:33.866Z,1007.73
2023-03-05T08:59:34.782Z,1007.72
2023-03-05T09:00:33.966Z,1007.69
2023-03-05T09:01:34.699Z,1007.67
2023-03-05T09:02:33.889Z,1007.66
2023-03-05T09:03:33.836Z,1007.71
2023-03-05T09:04:33.732Z,1007.74
2023-03-05T09:05:33.868Z,1007.71
2023-03-05T09:06:33.788Z,1007.75
2023-03-05T09:07:33.714Z,1007.77
2023-03-05T09:08:33.784Z,1007.80
2023-03-05T09:09:33.981Z,1007.85
2023-03-05T09:10:33.668Z,1007.78
2023-03-05T09:11:34.656Z,1007.81
2023-03-05T09:12:33.863Z,1007.79
2023-03-05T09:13:33.674Z,1007.75
2023-03-05T09:14:35.050Z,1007.70
2023-03-05T09:15:34.782Z,1007.72
2023-03-05T09:16:34.104Z,1007.68
2023-03-05T09:17:33.576Z,1007.67
2023-03-05T09:18:33.610Z,1007.75
2023-03-05T09:19:33.556Z,1007.76
2023-03-05T09:20:33.522Z,1007.76
2023-03-05T09:21:33.511Z,1007.71
2023-03-05T09:22:33.517Z,1007.70
2023-03-05T09:23:33.575Z,1007.62
2023-03-05T09:24:33.594Z,1007.64
2023-03-05T09:25:33.496Z,1007.71
2023-03-05T09:26:33.581Z,1007.66
2023-03-05T09:27:33.436Z,1007.67
2023-03-05T09:28:33.522Z,1007.59
2023-03-05T09:29:33.561Z,1007.57
2023-03-05T09:30:33.413Z,1007.57
2023-03-05T09:31:33.479Z,1007.60
2023-03-05T09:32:33.479Z,1007.62
2023-03-05T09:33:33.427Z,1007.63
2023-03-05T09:34:33.422Z,1007.59
2023-03-05T09:35:33.640Z,1007.65
2023-03-05T09:36:33.328Z,1007.59
2023-03-05T09:37:34.222Z,1007.62
2023-03-05T09:38:33.353Z,1007.61
2023-03-05T09:39:33.383Z,1007.63
2023-03-05T09:40:33.574Z,1007.60
2023-03-05T09:41:33.374Z,1007.58
2023-03-05T09:42:33.284Z,1007.59
2023-03-05T09:43:33.288Z,1007.55
2023-03-05T09:44:33.323Z,1007.62
2023-03-05T09:45:33.266Z,1007.64
2023-03-05T09:46:34.369Z,1007.62
2023-03-05T09:47:33.187Z,1007.61
2023-03-05T09:48:33.203Z,1007.66
2023-03-05T09:49:33.184Z,1007.61
2023-03-05T09:50:33.321Z,1007.60
2023-03-05T09:51:33.151Z,1007.60
2023-03-05T09:52:33.204Z,1007.53
2023-03-05T09:53:33.142Z,1007.54
2023-03-05T09:54:33.104Z,1007.61
2023-03-05T09:55:33.208Z,1007.57
2023-03-05T09:56:33.692Z,1007.58
2023-03-05T09:57:34.327Z,1007.57
2023-03-05T09:58:34.231Z,1007.57
2023-03-05T09:59:33.040Z,1007.55
2023-03-05T10:00:34.066Z,1007.56
2023-03-05T10:01:33.060Z,1007.58
2023-03-05T10:02:33.041Z,1007.57
2023-03-05T10:03:34.269Z,1007.59
2023-03-05T10:04:32.973Z,1007.60
2023-03-05T10:05:33.025Z,1007.55
2023-03-05T10:06:33.975Z,1007.55
2023-03-05T10:07:32.978Z,1007.54
2023-03-05T10:08:32.954Z,1007.56
2023-03-05T10:09:33.030Z,1007.50
2023-03-05T10:10:32.926Z,1007.57
2023-03-05T10:11:32.935Z,1007.57
2023-03-05T10:12:32.904Z,1007.56
2023-03-05T10:13:32.926Z,1007.60
2023-03-05T10:14:33.724Z,1007.51
2023-03-05T10:15:32.889Z,1007.51
2023-03-05T10:16:33.047Z,1007.47
2023-03-05T10:17:33.036Z,1007.47
2023-03-05T10:18:32.983Z,1007.40
2023-03-05T10:19:32.946Z,1007.40
2023-03-05T10:20:33.148Z,1007.38
2023-03-05T10:21:33.598Z,1007.47
2023-03-05T10:22:32.855Z,1007.50
2023-03-05T10:23:32.911Z,1007.44
2023-03-05T10:24:32.776Z,1007.47
2023-03-05T10:25:32.780Z,1007.47
2023-03-05T10:26:32.799Z,1007.43
2023-03-05T10:27:33.543Z,1007.43
2023-03-05T10:28:32.991Z,1007.43
2023-03-05T10:29:32.764Z,1007.49
2023-03-05T10:30:32.680Z,1007.37
2023-03-05T10:31:32.779Z,1007.40
2023-03-05T10:32:33.095Z,1007.39
2023-03-05T10:33:33.705Z,1007.34
2023-03-05T10:34:32.617Z,1007.34
2023-03-05T10:35:32.657Z,1007.29
2023-03-05T10:36:32.591Z,1007.25
2023-03-05T10:37:32.564Z,1007.23
2023-03-05T10:38:32.567Z,1007.23
2023-03-05T10:39:32.768Z,1007.24
2023-03-05T10:40:32.617Z,1007.21
2023-03-05T10:41:32.513Z,1007.13
2023-03-05T10:42:32.482Z,1007.14
2023-03-05T10:43:32.527Z,1007.08
2023-03-05T10:44:32.485Z,1007.11
2023-03-05T10:45:33.441Z,1007.10
2023-03-05T10:46:32.479Z,1007.09
2023-03-05T10:47:32.434Z,1007.18
2023-03-05T10:48:32.994Z,1007.20
2023-03-05T10:49:32.502Z,1007.04
2023-03-05T10:50:32.465Z,1007.13
2023-03-05T10:51:32.386Z,1006.90
2023-03-05T10:52:32.371Z,1007.01
2023-03-05T10:53:32.478Z,1007.00
2023-03-05T10:54:32.376Z,1007.05
2023-03-05T10:55:33.377Z,1007.00
2023-03-05T10:56:32.581Z,1006.95
2023-03-05T10:57:32.642Z,1006.95
2023-03-05T10:58:32.422Z,1007.04
2023-03-05T10:59:32.476Z,1006.92
2023-03-05T11:00:33.263Z,1007.12
2023-03-05T11:01:32.459Z,1006.92
2023-03-05T11:02:32.295Z,1006.93
2023-03-05T11:03:32.283Z,1006.90
2023-03-05T11:04:32.251Z,1006.90
2023-03-05T11:05:32.199Z,1006.95
2023-03-05T11:06:32.189Z,1006.89
2023-03-05T11:07:32.166Z,1006.83
2023-03-05T11:08:32.191Z,1006.74
2023-03-05T11:09:33.043Z,1006.82
2023-03-05T11:10:32.259Z,1006.85
2023-03-05T11:11:32.139Z,1006.87
2023-03-05T11:12:32.110Z,1006.82
2023-03-05T11:13:32.180Z,1006.79
2023-03-05T11:14:32.156Z,1006.85
2023-03-05T11:15:32.110Z,1006.77
2023-03-05T11:16:32.130Z,1006.77
2023-03-05T11:17:32.042Z,1006.83
2023-03-05T11:18:32.057Z,1006.76
2023-03-05T11:19:32.048Z,1006.92
2023-03-05T11:20:32.104Z,1006.81
2023-03-05T11:21:32.039Z,1006.77
2023-03-05T11:22:32.033Z,1006.78
2023-03-05T11:23:32.012Z,1006.74
2023-03-05T11:24:31.952Z,1006.68
2023-03-05T11:25:31.942Z,1006.75
2023-03-05T11:26:31.931Z,1006.65
2023-03-05T11:27:32.020Z,1006.68
2023-03-05T11:28:33.667Z,1006.69
2023-03-05T11:29:31.905Z,1006.67
2023-03-05T11:30:32.087Z,1006.62
2023-03-05T11:31:31.890Z,1006.71
2023-03-05T11:32:31.900Z,1006.59
2023-03-05T11:33:31.839Z,1006.80
2023-03-05T11:34:31.881Z,1006.66
2023-03-05T11:35:31.959Z,1006.62
2023-03-05T11:36:31.845Z,1006.58
2023-03-05T11:37:31.836Z,1006.51
2023-03-05T11:38:34.072Z,1006.57
2023-03-05T11:39:32.754Z,1006.56
2023-03-05T11:40:32.013Z,1006.51
2023-03-05T11:41:31.951Z,1006.44
2023-03-05T11:42:31.784Z,1006.54
2023-03-05T11:43:31.774Z,1006.40
2023-03-05T11:44:31.783Z,1006.43
2023-03-05T11:45:31.766Z,1006.37
2023-03-05T11:46:31.835Z,1006.46
2023-03-05T11:47:31.715Z,1006.42
2023-03-05T11:48:31.721Z,1006.44
2023-03-05T11:49:34.123Z,1006.41
2023-03-05T11:50:31.650Z,1006.43
2023-03-05T11:51:31.623Z,1006.49
2023-03-05T11:52:31.705Z,1006.44
2023-03-05T11:53:31.633Z,1006.44
2023-03-05T11:54:31.596Z,1006.45
2023-03-05T11:55:31.572Z,1006.45
2023-03-05T11:56:31.637Z,1006.35
2023-03-05T11:57:31.575Z,1006.41
2023-03-05T11:58:31.545Z,1006.50
2023-03-05T11:59:31.530Z,1006.38
2023-03-05T12:00:32.758Z,1006.41
2023-03-05T12:01:31.476Z,1006.49
2023-03-05T12:02:31.576Z,1006.40
2023-03-05T12:03:31.515Z,1006.53
2023-03-05T12:04:31.485Z,1006.42
2023-03-05T12:05:31.513Z,1006.40